createdAt,value
2022-11-09T00:00:38.147Z,1002.16
2022-11-09T00:02:38.210Z,1002.16
2022-11-09T00:04:35.349Z,1002.18
2022-11-09T00:06:35.837Z,1002.18
2022-11-09T00:08:36.021Z,1002.19
2022-11-09T00:10:36.109Z,1002.19
2022-11-09T00:12:35.955Z,1002.18
2022-11-09T00:14:35.753Z,1002.18
2022-11-09T00:16:36.271Z,1002.08
2022-11-09T00:18:35.173Z,1002.08
2022-11-09T00:20:35.477Z,1002.05
2022-11-09T00:22:35.694Z,1002.05
2022-11-09T00:24:35.326Z,1002.17
2022-11-09T00:26:35.322Z,1002.17
2022-11-09T00:28:35.827Z,1002.29
2022-11-09T00:30:35.476Z,1002.29
2022-11-09T00:32:39.409Z,1002.14
2022-11-09T00:34:35.464Z,1002.14
2022-11-09T00:36:35.755Z,1002.01
2022-11-09T00:38:35.284Z,1002.01
2022-11-09T00:40:36.006Z,1002.09
2022-11-09T00:42:35.936Z,1002.09
2022-11-09T00:44:36.280Z,1001.97
2022-11-09T00:46:35.967Z,1001.97
2022-11-09T00:48:35.920Z,1001.93
2022-11-09T00:50:35.627Z,1001.93
2022-11-09T00:52:35.753Z,1001.94
2022-11-09T00:54:35.121Z,1001.94
2022-11-09T00:56:35.630Z,1002.06
2022-11-09T00:58:35.527Z,1002.06
2022-11-09T01:00:41.022Z,1002.1
2022-11-09T01:02:35.757Z,1002.1
2022-11-09T01:04:35.809Z,1002.05
2022-11-09T01:06:36.094Z,1002.05
2022-11-09T01:08:35.952Z,1002.06
2022-11-09T01:10:35.805Z,1002.06
2022-11-09T01:12:35.240Z,1002.08
2022-11-09T01:14:35.658Z,1002.08
2022-11-09T01:16:35.698Z,1002.17
2022-11-09T01:18:35.539Z,1002.17
2022-11-09T01:20:35.230Z,1002.16
2022-11-09T01:22:35.347Z,1002.16
2022-11-09T01:24:35.859Z,1002.23
2022-11-09T01:26:35.547Z,1002.23
2022-11-09T01:28:35.783Z,1002.18
2022-11-09T01:30:35.419Z,1002.18
2022-11-09T01:32:35.912Z,1002.09
2022-11-09T01:34:35.337Z,1002.09
2022-11-09T01:36:35.989Z,1001.96
2022-11-09T01:38:35.235Z,1001.96
2022-11-09T01:40:35.434Z,1002.22
2022-11-09T01:42:35.160Z,1002.22
2022-11-09T01:44:35.327Z,1002.07
2022-11-09T01:46:35.876Z,1002.07
2022-11-09T01:48:35.166Z,1002.29
2022-11-09T01:50:35.352Z,1002.29
2022-11-09T01:52:35.162Z,1002.22
2022-11-09T01:54:35.436Z,1002.22
2022-11-09T01:56:35.213Z,1002.16
2022-11-09T01:58:35.862Z,1002.16
2022-11-09T02:00:38.089Z,1002.17
2022-11-09T02:02:35.249Z,1002.17
2022-11-09T02:04:35.240Z,1002.32
2022-11-09T02:06:36.051Z,1002.32
2022-11-09T02:08:35.686Z,1002.41
2022-11-09T02:10:35.551Z,1002.41
2022-11-09T02:12:36.002Z,1002.09
2022-11-09T02:14:35.227Z,1002.09
2022-11-09T02:16:35.096Z,1002.35
2022-11-09T02:18:35.996Z,1002.35
2022-11-09T02:20:36.184Z,1002.3
2022-11-09T02:22:35.368Z,1002.3
2022-11-09T02:24:35.223Z,1002.24
2022-11-09T02:26:35.933Z,1002.24
2022-11-09T02:28:35.566Z,1002.1
2022-11-09T02:30:35.773Z,1002.1
2022-11-09T02:32:35.300Z,1002.04
2022-11-09T02:34:35.805Z,1002.04
2022-11-09T02:36:35.513Z,1002.26
2022-11-09T02:38:35.453Z,1002.26
2022-11-09T02:40:35.726Z,1002.16
2022-11-09T02:42:43.639Z,1002.16
2022-11-09T02:44:35.663Z,1002.08
2022-11-09T02:46:35.792Z,1002.08
2022-11-09T02:48:35.149Z,1001.98
2022-11-09T02:50:35.467Z,1001.98
2022-11-09T02:52:35.308Z,1001.99
2022-11-09T02:54:35.692Z,1001.99
2022-11-09T02:56:35.946Z,1002.16
2022-11-09T02:58:35.784Z,1002.16
2022-11-09T03:00:38.445Z,1002.24
2022-11-09T03:02:35.305Z,1002.24
2022-11-09T03:04:35.835Z,1002.19
2022-11-09T03:06:35.266Z,1002.19
2022-11-09T03:08:35.449Z,1002.18
2022-11-09T03:10:35.595Z,1002.18
2022-11-09T03:12:35.636Z,1002.24
2022-11-09T03:14:34.993Z,1002.3
2022-11-09T03:16:35.328Z,1002.3
2022-11-09T03:18:35.512Z,1002.3
2022-11-09T03:20:35.917Z,1002.3
2022-11-09T03:22:35.620Z,1002.41
2022-11-09T03:24:35.333Z,1002.41
2022-11-09T03:26:34.987Z,1002.38
2022-11-09T03:28:35.830Z,1002.38
2022-11-09T03:30:35.867Z,1002.31
2022-11-09T03:32:35.526Z,1002.31
2022-11-09T03:34:35.883Z,1002.33
2022-11-09T03:36:35.303Z,1002.33
2022-11-09T03:38:35.819Z,1002.61
2022-11-09T03:40:35.448Z,1002.61
2022-11-09T03:42:36.086Z,1002.58
2022-11-09T03:44:35.486Z,1002.58
2022-11-09T03:46:35.498Z,1002.73
2022-11-09T03:48:35.858Z,1002.73
2022-11-09T03:50:35.626Z,1002.92
2022-11-09T03:52:35.752Z,1002.92
2022-11-09T03:54:35.135Z,1003.05
2022-11-09T03:56:35.271Z,1003.05
2022-11-09T03:58:35.483Z,1003.1
2022-11-09T04:00:39.017Z,1003.1
2022-11-09T04:02:36.176Z,1003.14
2022-11-09T04:04:35.654Z,1003.14
2022-11-09T04:06:35.337Z,1003.02
2022-11-09T04:08:35.046Z,1003.02
2022-11-09T04:10:35.967Z,1003.12
2022-11-09T04:12:35.202Z,1003.12
2022-11-09T04:14:35.521Z,1003.09
2022-11-09T04:16:36.006Z,1003.09
2022-11-09T04:18:35.478Z,1003.11
2022-11-09T04:20:35.443Z,1003.11
2022-11-09T04:22:35.569Z,1003.23
2022-11-09T04:24:35.757Z,1003.23
2022-11-09T04:26:35.469Z,1003.2
2022-11-09T04:28:35.084Z,1003.2
2022-11-09T04:30:35.680Z,1003.26
2022-11-09T04:32:35.420Z,1003.26
2022-11-09T04:34:35.947Z,1003.22
2022-11-09T04:36:35.628Z,1003.22
2022-11-09T04:38:35.293Z,1003.19
2022-11-09T04:40:35.259Z,1003.19
2022-11-09T04:42:35.867Z,1003.17
2022-11-09T04:44:35.448Z,1003.17
2022-11-09T04:46:35.886Z,1002.99
2022-11-09T04:48:35.658Z,1002.99
2022-11-09T04:50:35.867Z,1003.16
2022-11-09T04:52:35.193Z,1003.16
2022-11-09T04:54:35.692Z,1003.14
2022-11-09T04:56:35.056Z,1003.14
2022-11-09T04:58:36.529Z,1003.06
2022-11-09T05:00:38.388Z,1003.06
2022-11-09T05:02:35.085Z,1003.07
2022-11-09T05:04:35.943Z,1003.07
2022-11-09T05:06:36.011Z,1003.09
2022-11-09T05:08:35.197Z,1003.09
2022-11-09T05:10:35.587Z,1003.16
2022-11-09T05:12:35.899Z,1003.16
2022-11-09T05:14:35.342Z,1003.1
2022-11-09T05:16:35.935Z,1003.1
2022-11-09T05:18:35.238Z,1003.04
2022-11-09T05:20:35.839Z,1003.04
2022-11-09T05:22:35.165Z,1003
2022-11-09T05:24:35.358Z,1003
2022-11-09T05:26:35.667Z,1003
2022-11-09T05:28:35.229Z,1003
2022-11-09T05:30:35.928Z,1002.96
2022-11-09T05:32:35.299Z,1002.96
2022-11-09T05:34:35.984Z,1003.14
2022-11-09T05:36:35.579Z,1003.14
2022-11-09T05:38:35.157Z,1003.11
2022-11-09T05:40:35.201Z,1003.11
2022-11-09T05:42:35.650Z,1003.15
2022-11-09T05:44:35.167Z,1003.15
2022-11-09T05:46:40.444Z,1003.22
2022-11-09T05:48:35.548Z,1003.22
2022-11-09T05:50:35.933Z,1003.27
2022-11-09T05:52:35.098Z,1003.27
2022-11-09T05:54:35.733Z,1003.16
2022-11-09T05:56:35.613Z,1003.16
2022-11-09T05:58:35.839Z,1003.14
2022-11-09T06:00:43.693Z,1003.14
2022-11-09T06:02:36.162Z,1003.27
2022-11-09T06:04:35.262Z,1003.27
2022-11-09T06:06:42.451Z,1003.26
2022-11-09T06:08:36.066Z,1003.26
2022-11-09T06:10:35.213Z,1003.19
2022-11-09T06:12:35.128Z,1003.19
2022-11-09T06:14:35.703Z,1003.19
2022-11-09T06:16:35.285Z,1003.19
2022-11-09T06:18:35.230Z,1003.23
2022-11-09T06:20:35.818Z,1003.23
2022-11-09T06:22:35.666Z,1003.29
2022-11-09T06:24:35.874Z,1003.29
2022-11-09T06:26:35.191Z,1003.37
2022-11-09T06:28:35.504Z,1003.37
2022-11-09T06:30:35.105Z,1003.39
2022-11-09T06:32:35.491Z,1003.31
2022-11-09T06:34:35.297Z,1003.31
2022-11-09T06:36:35.408Z,1003.38
2022-11-09T06:38:35.088Z,1003.38
2022-11-09T06:40:35.339Z,1003.33
2022-11-09T06:42:35.992Z,1003.33
2022-11-09T06:44:35.480Z,1003.39
2022-11-09T06:46:35.475Z,1003.39
2022-11-09T06:48:35.549Z,1003.49
2022-11-09T06:50:35.895Z,1003.49
2022-11-09T06:52:34.989Z,1003.36
2022-11-09T06:54:35.836Z,1003.36
2022-11-09T06:56:35.303Z,1003.42
2022-11-09T06:58:36.008Z,1003.42
2022-11-09T07:00:38.003Z,1003.39
2022-11-09T07:02:35.891Z,1003.39
2022-11-09T07:04:35.652Z,1003.49
2022-11-09T07:06:36.020Z,1003.49
2022-11-09T07:08:35.900Z,1003.45
2022-11-09T07:10:35.547Z,1003.45
2022-11-09T07:12:35.766Z,1003.58
2022-11-09T07:14:35.615Z,1003.58
2022-11-09T07:16:35.571Z,1003.67
2022-11-09T07:18:35.913Z,1003.67
2022-11-09T07:20:35.506Z,1003.6
2022-11-09T07:22:35.737Z,1003.6
2022-11-09T07:24:35.767Z,1003.59
2022-11-09T07:26:35.264Z,1003.59
2022-11-09T07:28:35.703Z,1003.65
2022-11-09T07:30:35.046Z,1003.65
2022-11-09T07:33:10.052Z,1003.66
2022-11-09T07:34:35.876Z,1003.66
2022-11-09T07:36:42.430Z,1003.79
2022-11-09T07:38:36.207Z,1003.79
2022-11-09T07:40:35.495Z,1003.92
2022-11-09T07:42:35.146Z,1003.92
2022-11-09T07:44:35.473Z,1003.85
2022-11-09T07:46:35.670Z,1003.85
2022-11-09T07:48:35.075Z,1003.99
2022-11-09T07:50:35.661Z,1003.99
2022-11-09T07:52:35.759Z,1003.85
2022-11-09T07:54:35.323Z,1003.85
2022-11-09T07:56:35.727Z,1004.06
2022-11-09T07:58:35.478Z,1004.06
2022-11-09T08:00:45.025Z,1003.98
2022-11-09T08:02:36.233Z,1003.98
2022-11-09T08:04:35.937Z,1004
2022-11-09T08:06:41.100Z,1004
2022-11-09T08:08:35.699Z,1004.02
2022-11-09T08:10:35.506Z,1004.02
2022-11-09T08:12:37.277Z,1004.08
2022-11-09T08:14:35.752Z,1004.08
2022-11-09T08:16:37.761Z,1004.09
2022-11-09T08:18:36.105Z,1004.09
2022-11-09T08:20:35.458Z,1004.14
2022-11-09T08:22:35.333Z,1004.14
2022-11-09T08:24:35.286Z,1004.1
2022-11-09T08:26:35.082Z,1004.1
2022-11-09T08:28:38.627Z,1004.11
2022-11-09T08:30:35.627Z,1004.11
2022-11-09T08:32:35.088Z,1004.21
2022-11-09T08:34:35.105Z,1004.21
2022-11-09T08:36:35.733Z,1004.22
2022-11-09T08:38:35.843Z,1004.22
2022-11-09T08:40:35.505Z,1004.17
2022-11-09T08:42:35.651Z,1004.17
2022-11-09T08:44:35.966Z,1004.24
2022-11-09T08:46:40.872Z,1004.24
2022-11-09T08:48:35.638Z,1004.26
2022-11-09T08:50:35.846Z,1004.26
2022-11-09T08:52:35.163Z,1004.3
2022-11-09T08:54:34.993Z,1004.3
2022-11-09T08:56:35.578Z,1004.33
2022-11-09T08:58:35.537Z,1004.33
2022-11-09T09:00:38.002Z,1004.25
2022-11-09T09:02:35.300Z,1004.25
2022-11-09T09:04:35.727Z,1004.27
2022-11-09T09:06:42.293Z,1004.27
2022-11-09T09:08:35.860Z,1004.28
2022-11-09T09:10:35.786Z,1004.28
2022-11-09T09:12:35.914Z,1004.33
2022-11-09T09:14:35.515Z,1004.33
2022-11-09T09:16:35.726Z,1004.32
2022-11-09T09:18:35.926Z,1004.32
2022-11-09T09:20:35.213Z,1004.41
2022-11-09T09:22:35.290Z,1004.41
2022-11-09T09:24:35.623Z,1004.32
2022-11-09T09:26:35.995Z,1004.32
2022-11-09T09:28:35.561Z,1004.27
2022-11-09T09:30:35.805Z,1004.27
2022-11-09T09:32:35.431Z,1004.42
2022-11-09T09:34:35.840Z,1004.42
2022-11-09T09:36:35.886Z,1004.41
2022-11-09T09:38:35.221Z,1004.41
2022-11-09T09:40:35.880Z,1004.44
2022-11-09T09:42:35.930Z,1004.44
2022-11-09T09:44:35.966Z,1004.38
2022-11-09T09:46:35.910Z,1004.38
2022-11-09T09:48:35.517Z,1004.52
2022-11-09T09:50:35.672Z,1004.52
2022-11-09T09:52:35.183Z,1004.49
2022-11-09T09:54:35.717Z,1004.49
2022-11-09T09:56:35.523Z,1004.69
2022-11-09T09:58:35.182Z,1004.69
2022-11-09T10:00:36.998Z,1004.73
2022-11-09T10:02:35.636Z,1004.78
2022-11-09T10:04:36.008Z,1004.78
2022-11-09T10:06:35.162Z,1004.83
2022-11-09T10:08:35.338Z,1004.83
2022-11-09T10:10:35.381Z,1004.72
2022-11-09T10:12:35.591Z,1004.72
2022-11-09T10:14:35.125Z,1004.85
2022-11-09T10:16:35.310Z,1004.85
2022-11-09T10:18:35.501Z,1004.92
2022-11-09T10:20:35.737Z,1004.92
2022-11-09T10:22:35.179Z,1004.89
2022-11-09T10:24:36.955Z,1004.89
2022-11-09T10:26:40.755Z,1004.94
2022-11-09T10:28:54.709Z,1004.94
2022-11-09T10:30:35.672Z,1004.95
2022-11-09T10:32:35.198Z,1004.95
2022-11-09T10:34:35.948Z,1004.99
2022-11-09T10:36:41.837Z,1004.99
2022-11-09T10:38:35.899Z,1004.98
2022-11-09T10:40:35.831Z,1004.98
2022-11-09T10:42:35.701Z,1004.75
2022-11-09T10:44:40.263Z,1004.75
2022-11-09T10:46:35.925Z,1004.75
2022-11-09T10:48:35.917Z,1004.75
2022-11-09T10:50:36.071Z,1004.8
2022-11-09T10:52:35.186Z,1004.8
2022-11-09T10:54:35.778Z,1004.78
2022-11-09T10:57:06.104Z,1004.78
2022-11-09T10:58:35.704Z,1004.8
2022-11-09T11:00:37.783Z,1004.8
2022-11-09T11:02:36.412Z,1004.74
2022-11-09T11:04:35.388Z,1004.74
2022-11-09T11:06:35.882Z,1004.73
2022-11-09T11:08:35.758Z,1004.73
2022-11-09T11:10:35.603Z,1004.66
2022-11-09T11:12:35.274Z,1004.66
2022-11-09T11:14:40.838Z,1004.88
2022-11-09T11:16:36.056Z,1004.88
2022-11-09T11:18:35.529Z,1004.79
2022-11-09T11:20:35.564Z,1004.79
2022-11-09T11:22:35.630Z,1004.92
2022-11-09T11:24:35.483Z,1004.92
2022-11-09T11:26:35.612Z,1004.82
2022-11-09T11:28:36.015Z,1004.82
2022-11-09T11:30:35.344Z,1004.94
2022-11-09T11:32:35.502Z,1004.94
2022-11-09T11:35:12.485Z,1005.03
2022-11-09T11:36:35.481Z,1005.03
2022-11-09T11:38:35.768Z,1005
2022-11-09T11:40:35.296Z,1005
2022-11-09T11:42:35.660Z,1005.05
2022-11-09T11:44:35.137Z,1005.05
2022-11-09T11:46:35.533Z,1005
2022-11-09T11:48:35.951Z,1005
2022-11-09T11:50:35.786Z,1004.86
2022-11-09T11:52:35.080Z,1004.86
2022-11-09T11:54:35.486Z,1004.93
2022-11-09T11:56:35.846Z,1004.93
2022-11-09T11:58:35.381Z,1004.97
2022-11-09T12:00:37.931Z,1004.97
2022-11-09T12:02:35.838Z,1004.94
2022-11-09T12:04:43.343Z,1004.94
2022-11-09T12:06:35.625Z,1005.03
2022-11-09T12:08:35.312Z,1005.03
2022-11-09T12:10:35.155Z,1005.06
2022-11-09T12:12:35.086Z,1005.06
2022-11-09T12:14:35.407Z,1005.05
2022-11-09T12:16:36.165Z,1005.05
2022-11-09T12:18:35.507Z,1005.12
2022-11-09T12:20:35.945Z,1005.12
2022-11-09T12:22:35.575Z,1005.02
2022-11-09T12:24:36.134Z,1005.02
2022-11-09T12:26:39.877Z,1005.09
2022-11-09T12:28:35.829Z,1005.09
2022-11-09T12:30:35.564Z,1005.08
2022-11-09T12:32:35.280Z,1005.08
2022-11-09T12:34:35.084Z,1005.21
2022-11-09T12:36:36.489Z,1005.21
2022-11-09T12:38:35.841Z,1005.11
2022-11-09T12:40:36.010Z,1005.11
2022-11-09T12:42:35.597Z,1005.17
2022-11-09T12:44:39.896Z,1005.17
2022-11-09T12:46:35.862Z,1005.28
2022-11-09T12:48:35.753Z,1005.28
2022-11-09T12:50:36.053Z,1005.28
2022-11-09T12:52:35.188Z,1005.28
2022-11-09T12:54:35.342Z,1005.39
2022-11-09T12:56:35.385Z,1005.39
2022-11-09T12:58:35.754Z,1005.51
2022-11-09T13:00:39.617Z,1005.51
2022-11-09T13:02:35.608Z,1005.42
2022-11-09T13:04:35.334Z,1005.42
2022-11-09T13:06:36.501Z,1005.39
2022-11-09T13:08:35.700Z,1005.39
2022-11-09T13:10:35.271Z,1005.48
2022-11-09T13:12:38.738Z,1005.48
2022-11-09T13:14:35.352Z,1005.57
2022-11-09T13:16:35.754Z,1005.57
2022-11-09T13:18:36.035Z,1005.58
2022-11-09T13:21:11.243Z,1005.59
2022-11-09T13:22:35.423Z,1005.59
2022-11-09T13:24:46.772Z,1005.73
2022-11-09T13:26:35.097Z,1005.73
2022-11-09T13:28:35.094Z,1005.72
2022-11-09T13:30:35.210Z,1005.72
2022-11-09T13:32:35.585Z,1005.77
2022-11-09T13:34:35.893Z,1005.77
2022-11-09T13:36:34.999Z,1005.98
2022-11-09T13:38:42.649Z,1005.98
2022-11-09T13:40:36.029Z,1005.85
2022-11-09T13:42:35.401Z,1005.85
2022-11-09T13:44:37.746Z,1005.86
2022-11-09T13:46:35.041Z,1005.86
2022-11-09T13:48:35.376Z,1005.91
2022-11-09T13:50:35.737Z,1005.91
2022-11-09T13:52:35.056Z,1005.98
2022-11-09T13:54:35.540Z,1005.98
2022-11-09T13:56:38.775Z,1006.06
2022-11-09T13:58:35.588Z,1006.06
2022-11-09T14:00:37.971Z,1006.28
2022-11-09T14:02:35.360Z,1006.28
2022-11-09T14:04:35.712Z,1006.19
2022-11-09T14:06:35.968Z,1006.19
2022-11-09T14:08:40.384Z,1006.32
2022-11-09T14:10:35.553Z,1006.32
2022-11-09T14:12:35.083Z,1006.33
2022-11-09T14:14:37.568Z,1006.33
2022-11-09T14:16:35.205Z,1006.35
2022-11-09T14:18:35.179Z,1006.35
2022-11-09T14:20:35.647Z,1006.47
2022-11-09T14:22:35.999Z,1006.47
2022-11-09T14:24:35.644Z,1006.63
2022-11-09T14:26:35.212Z,1006.63
2022-11-09T14:28:35.746Z,1006.66
2022-11-09T14:30:35.161Z,1006.66
2022-11-09T14:32:35.391Z,1006.72
2022-11-09T14:34:35.970Z,1006.72
2022-11-09T14:36:35.791Z,1006.81
2022-11-09T14:38:35.623Z,1006.81
2022-11-09T14:40:35.625Z,1006.91
2022-11-09T14:42:35.487Z,1006.91
2022-11-09T14:44:35.637Z,1006.74
2022-11-09T14:46:35.344Z,1006.74
2022-11-09T14:48:36.314Z,1006.93
2022-11-09T14:50:35.774Z,1006.93
2022-11-09T14:52:35.330Z,1007.02
2022-11-09T14:54:35.480Z,1007.02
2022-11-09T14:56:35.717Z,1007.13
2022-11-09T14:58:35.924Z,1007.13
2022-11-09T15:00:41.855Z,1007.21
2022-11-09T15:02:35.326Z,1007.21
2022-11-09T15:04:36.346Z,1007.25
2022-11-09T15:06:35.692Z,1007.25
2022-11-09T15:08:35.976Z,1007.29
2022-11-09T15:10:35.094Z,1007.29
2022-11-09T15:12:35.341Z,1007.34
2022-11-09T15:14:35.469Z,1007.34
2022-11-09T15:16:35.913Z,1007.36
2022-11-09T15:18:41.639Z,1007.36
2022-11-09T15:20:35.443Z,1007.45
2022-11-09T15:22:35.387Z,1007.45
2022-11-09T15:24:35.668Z,1007.58
2022-11-09T15:26:35.570Z,1007.58
2022-11-09T15:28:36.028Z,1007.6
2022-11-09T15:30:35.372Z,1007.6
2022-11-09T15:32:35.145Z,1007.59
2022-11-09T15:34:35.118Z,1007.59
2022-11-09T15:36:35.174Z,1007.74
2022-11-09T15:38:35.691Z,1007.74
2022-11-09T15:40:35.121Z,1007.71
2022-11-09T15:42:35.474Z,1007.71
2022-11-09T15:44:35.361Z,1007.65
2022-11-09T15:46:35.803Z,1007.65
2022-11-09T15:48:35.395Z,1007.82
2022-11-09T15:50:35.356Z,1007.82
2022-11-09T15:52:35.037Z,1007.94
2022-11-09T15:54:35.979Z,1007.94
2022-11-09T15:56:36.040Z,1008
2022-11-09T15:58:36.214Z,1008
2022-11-09T16:00:45.441Z,1008.1
2022-11-09T16:02:35.772Z,1008.1
2022-11-09T16:04:35.525Z,1008.09
2022-11-09T16:06:35.739Z,1008.09
2022-11-09T16:08:35.984Z,1008.18
2022-11-09T16:10:35.278Z,1008.18
2022-11-09T16:12:35.682Z,1008.3
2022-11-09T16:14:35.662Z,1008.3
2022-11-09T16:16:35.570Z,1008.31
2022-11-09T16:18:37.640Z,1008.31
2022-11-09T16:20:35.769Z,1008.24
2022-11-09T16:22:35.972Z,1008.24
2022-11-09T16:24:35.127Z,1008.36
2022-11-09T16:26:35.511Z,1008.36
2022-11-09T16:28:35.840Z,1008.5
2022-11-09T16:30:35.492Z,1008.5
2022-11-09T16:32:35.319Z,1008.68
2022-11-09T16:34:35.649Z,1008.68
2022-11-09T16:36:35.300Z,1008.66
2022-11-09T16:38:35.194Z,1008.66
2022-11-09T16:40:35.394Z,1008.63
2022-11-09T16:42:35.647Z,1008.63
2022-11-09T16:44:35.178Z,1008.79
2022-11-09T16:46:35.501Z,1008.79
2022-11-09T16:48:35.899Z,1008.79
2022-11-09T16:50:35.455Z,1008.79
2022-11-09T16:52:35.401Z,1008.87
2022-11-09T16:54:35.772Z,1008.88
2022-11-09T16:56:35.519Z,1008.88
2022-11-09T16:58:35.446Z,1008.93
2022-11-09T17:01:12.010Z,1008.93
2022-11-09T17:02:35.256Z,1008.99
2022-11-09T17:04:35.232Z,1008.99
2022-11-09T17:06:35.995Z,1009.09
2022-11-09T17:08:35.351Z,1009.09
2022-11-09T17:10:35.625Z,1009.05
2022-11-09T17:12:35.853Z,1009.05
2022-11-09T17:14:35.240Z,1009.21
2022-11-09T17:16:35.259Z,1009.21
2022-11-09T17:18:35.789Z,1009.22
2022-11-09T17:20:35.376Z,1009.22
2022-11-09T17:22:35.306Z,1009.27
2022-11-09T17:24:35.068Z,1009.27
2022-11-09T17:26:35.397Z,1009.39
2022-11-09T17:28:38.750Z,1009.39
2022-11-09T17:30:35.184Z,1009.4
2022-11-09T17:32:35.590Z,1009.4
2022-11-09T17:34:35.506Z,1009.39
2022-11-09T17:37:13.432Z,1009.39
2022-11-09T17:38:35.698Z,1009.52
2022-11-09T17:40:35.582Z,1009.52
2022-11-09T17:42:35.156Z,1009.63
2022-11-09T17:44:35.403Z,1009.63
2022-11-09T17:46:35.209Z,1009.73
2022-11-09T17:48:35.571Z,1009.73
2022-11-09T17:50:35.981Z,1009.73
2022-11-09T17:52:35.674Z,1009.73
2022-11-09T17:54:37.182Z,1009.77
2022-11-09T17:56:35.241Z,1009.77
2022-11-09T17:58:35.426Z,1009.9
2022-11-09T18:00:41.038Z,1009.9
2022-11-09T18:02:35.944Z,1009.93
2022-11-09T18:04:40.608Z,1009.93
2022-11-09T18:06:35.722Z,1010
2022-11-09T18:08:35.980Z,1010
2022-11-09T18:10:36.001Z,1010.11
2022-11-09T18:12:35.592Z,1010.11
2022-11-09T18:14:35.564Z,1010.13
2022-11-09T18:16:40.368Z,1010.13
2022-11-09T18:18:35.985Z,1010.13
2022-11-09T18:20:35.377Z,1010.13
2022-11-09T18:22:37.608Z,1010.27
2022-11-09T18:24:35.539Z,1010.27
2022-11-09T18:26:35.198Z,1010.39
2022-11-09T18:28:35.707Z,1010.39
2022-11-09T18:30:35.820Z,1010.28
2022-11-09T18:32:35.552Z,1010.28
2022-11-09T18:34:35.063Z,1010.35
2022-11-09T18:36:35.677Z,1010.35
2022-11-09T18:38:40.923Z,1010.44
2022-11-09T18:40:35.921Z,1010.44
2022-11-09T18:42:35.937Z,1010.33
2022-11-09T18:44:36.609Z,1010.33
2022-11-09T18:46:35.336Z,1010.38
2022-11-09T18:48:35.802Z,1010.38
2022-11-09T18:50:35.333Z,1010.54
2022-11-09T18:52:35.741Z,1010.54
2022-11-09T18:54:35.131Z,1010.61
2022-11-09T18:56:40.658Z,1010.61
2022-11-09T18:58:35.707Z,1010.66
2022-11-09T19:00:38.231Z,1010.66
2022-11-09T19:02:35.282Z,1010.76
2022-11-09T19:04:35.414Z,1010.76
2022-11-09T19:06:35.195Z,1010.79
2022-11-09T19:08:35.934Z,1010.79
2022-11-09T19:10:35.435Z,1010.89
2022-11-09T19:12:35.040Z,1010.89
2022-11-09T19:14:35.578Z,1010.97
2022-11-09T19:16:35.819Z,1010.97
2022-11-09T19:18:35.553Z,1011
2022-11-09T19:20:35.929Z,1011
2022-11-09T19:22:35.610Z,1011.04
2022-11-09T19:24:35.489Z,1011.04
2022-11-09T19:26:36.003Z,1011.22
2022-11-09T19:28:35.529Z,1011.22
2022-11-09T19:30:43.082Z,1011.32
2022-11-09T19:32:35.727Z,1011.32
2022-11-09T19:34:35.623Z,1011.29
2022-11-09T19:37:03.242Z,1011.37
2022-11-09T19:38:40.439Z,1011.37
2022-11-09T19:40:39.845Z,1011.37
2022-11-09T19:42:35.353Z,1011.41
2022-11-09T19:44:35.298Z,1011.41
2022-11-09T19:46:35.686Z,1011.35
2022-11-09T19:48:35.551Z,1011.35
2022-11-09T19:50:35.662Z,1011.59
2022-11-09T19:52:35.536Z,1011.59
2022-11-09T19:54:35.977Z,1011.58
2022-11-09T19:56:35.902Z,1011.58
2022-11-09T19:58:35.663Z,1011.54
2022-11-09T20:00:37.636Z,1011.54
2022-11-09T20:02:35.168Z,1011.74
2022-11-09T20:04:38.970Z,1011.74
2022-11-09T20:06:35.543Z,1011.78
2022-11-09T20:08:35.650Z,1011.78
2022-11-09T20:10:35.068Z,1011.84
2022-11-09T20:12:35.518Z,1011.84
2022-11-09T20:14:35.857Z,1011.91
2022-11-09T20:16:35.921Z,1011.91
2022-11-09T20:18:35.594Z,1012.05
2022-11-09T20:20:35.428Z,1012.03
2022-11-09T20:22:35.319Z,1012.03
2022-11-09T20:24:35.729Z,1012.11
2022-11-09T20:26:35.370Z,1012.11
2022-11-09T20:28:35.774Z,1012.1
2022-11-09T20:30:36.061Z,1012.1
2022-11-09T20:32:39.140Z,1012.13
2022-11-09T20:34:35.585Z,1012.13
2022-11-09T20:36:35.665Z,1012.17
2022-11-09T20:38:35.515Z,1012.17
2022-11-09T20:40:35.285Z,1012.19
2022-11-09T20:42:35.562Z,1012.19
2022-11-09T20:44:35.723Z,1012.33
2022-11-09T20:46:36.748Z,1012.33
2022-11-09T20:49:17.366Z,1012.39
2022-11-09T20:50:35.939Z,1012.39
2022-11-09T20:52:35.440Z,1012.39
2022-11-09T20:54:41.205Z,1012.39
2022-11-09T20:56:35.332Z,1012.38
2022-11-09T20:58:35.774Z,1012.38
2022-11-09T21:00:45.735Z,1012.39
2022-11-09T21:02:35.402Z,1012.39
2022-11-09T21:04:35.954Z,1012.43
2022-11-09T21:06:35.329Z,1012.43
2022-11-09T21:08:35.975Z,1012.55
2022-11-09T21:10:35.567Z,1012.55
2022-11-09T21:12:35.415Z,1012.51
2022-11-09T21:14:35.812Z,1012.51
2022-11-09T21:16:35.420Z,1012.49
2022-11-09T21:18:36.055Z,1012.49
2022-11-09T21:20:35.334Z,1012.65
2022-11-09T21:22:35.688Z,1012.65
2022-11-09T21:24:35.360Z,1012.74
2022-11-09T21:26:35.183Z,1012.74
2022-11-09T21:28:35.647Z,1012.77
2022-11-09T21:30:35.633Z,1012.77
2022-11-09T21:32:35.061Z,1012.79
2022-11-09T21:34:37.338Z,1012.79
2022-11-09T21:36:35.932Z,1012.89
2022-11-09T21:38:35.731Z,1012.89
2022-11-09T21:40:35.123Z,1012.92
2022-11-09T21:42:35.574Z,1012.92
2022-11-09T21:44:35.465Z,1012.95
2022-11-09T21:46:35.459Z,1012.95
2022-11-09T21:48:35.956Z,1012.85
2022-11-09T21:50:35.657Z,1012.85
2022-11-09T21:52:35.928Z,1012.91
2022-11-09T21:54:35.334Z,1012.91
2022-11-09T21:56:35.484Z,1013.14
2022-11-09T21:58:35.929Z,1013.14
2022-11-09T22:00:38.177Z,1013.08
2022-11-09T22:02:35.460Z,1013.08
2022-11-09T22:04:35.316Z,1013.16
2022-11-09T22:06:35.814Z,1013.16
2022-11-09T22:08:35.517Z,1013.22
2022-11-09T22:10:45.439Z,1013.22
2022-11-09T22:12:35.017Z,1013.16
2022-11-09T22:14:35.567Z,1013.16
2022-11-09T22:16:35.140Z,1013.24
2022-11-09T22:18:35.788Z,1013.24
2022-11-09T22:20:35.769Z,1013.24
2022-11-09T22:22:35.773Z,1013.24
2022-11-09T22:24:35.966Z,1013.35
2022-11-09T22:26:35.697Z,1013.35
2022-11-09T22:28:35.475Z,1013.23
2022-11-09T22:30:36.006Z,1013.23
2022-11-09T22:32:35.368Z,1013.3
2022-11-09T22:34:35.640Z,1013.3
2022-11-09T22:36:35.208Z,1013.3
2022-11-09T22:38:35.799Z,1013.3
2022-11-09T22:40:35.160Z,1013.42
2022-11-09T22:42:35.304Z,1013.42
2022-11-09T22:44:35.262Z,1013.44
2022-11-09T22:46:35.322Z,1013.44
2022-11-09T22:48:35.877Z,1013.55
2022-11-09T22:50:35.358Z,1013.55
2022-11-09T22:52:35.116Z,1013.61
2022-11-09T22:54:35.429Z,1013.61
2022-11-09T22:56:35.230Z,1013.68
2022-11-09T22:58:35.224Z,1013.68
2022-11-09T23:00:35.291Z,1013.76
2022-11-09T23:02:35.743Z,1013.76
2022-11-09T23:04:35.809Z,1013.76
2022-11-09T23:06:35.174Z,1013.76
2022-11-09T23:08:37.988Z,1013.85
2022-11-09T23:10:35.132Z,1013.85
2022-11-09T23:12:35.204Z,1014
2022-11-09T23:14:35.653Z,1014
2022-11-09T23:16:35.283Z,1014.08
2022-11-09T23:18:35.815Z,1014.08
2022-11-09T23:20:36.135Z,1014.11
2022-11-09T23:22:35.521Z,1014.11
2022-11-09T23:24:35.017Z,1014.19
2022-11-09T23:26:35.615Z,1014.19
2022-11-09T23:28:35.330Z,1014.32
2022-11-09T23:30:35.347Z,1014.32
2022-11-09T23:32:36.026Z,1014.32
2022-11-09T23:34:42.740Z,1014.15
2022-11-09T23:36:35.645Z,1014.15
2022-11-09T23:38:35.917Z,1014.15
2022-11-09T23:40:36.952Z,1014.16
2022-11-09T23:42:35.941Z,1014.15
2022-11-09T23:44:35.421Z,1014.15
2022-11-09T23:46:35.732Z,1014.17
2022-11-09T23:48:35.679Z,1014.17
2022-11-09T23:50:36.081Z,1014.3
2022-11-09T23:52:35.202Z,1014.3
2022-11-09T23:54:35.560Z,1014.22
2022-11-09T23:56:34.987Z,1014.22
2022-11-09T23:58:35.302Z,1014.48
